Level Corner, Pennsylvania
Current Conditions -  °F | °C
As of 5:54 AM on Thursday 23 Oct 2014 (Local Time) from KIPT Reporting Station
Broken Clouds Broken Clouds  
Wind Chill: 51°   Ceiling: 2800
Heat Index: 51°   Visibility: 10mi
Dew Point: 40°   Wind: 12mph
Humidity: 66%   Direction: 310°NW
Pressure: 29.92"   Gusts: 18mph
Location:  41.2701°N, 77.1585°W
Report Text: KIPT 230954Z AUTO 31010G16KT 10SM BKN028 11/04 A2992 RMK AO2 SLP132 T01060044
Loading
Personal Weather Stations






























Interactive Weather Map
Tropical Storm Tracking
New forecast layout! Learn more

10-Day Weather Forecast

Advertisements
Track Severe Weather on mobile